Time;durP1;ratioP1;P1;durP2;ratioP2;P2;SDS_P1;SDS_P2;PMS_P1;PMS_P2;Temp;Humidity;BMP_temperature;BMP_pressure;BME280_temperature;BME280_humidity;BME280_pressure;Samples;Min_cycle;Max_cycle;Signal;HPM_P1;HPM_P2
2022/04/23 00:01:46;;;;;;;2.28;0.47;;;11.50;99.90;;;;;;5098205;28;20095;-80
2022/04/23 00:04:13;;;;;;;0.00;0.00;;;11.40;99.90;;;;;;5098039;28;20054;-80
2022/04/23 00:06:39;;;;;;;0.55;0.00;;;11.40;99.90;;;;;;5114952;28;20092;-80
2022/04/23 00:09:05;;;;;;;0.20;0.20;;;11.40;99.90;;;;;;5097565;28;20064;-80
2022/04/23 00:11:32;;;;;;;0.22;0.17;;;11.40;99.90;;;;;;5097211;28;20131;-80
2022/04/23 00:13:59;;;;;;;3.28;0.95;;;11.30;99.90;;;;;;5114173;28;20043;-80
2022/04/23 00:16:25;;;;;;;0.10;0.05;;;11.30;99.90;;;;;;5112663;28;20130;-80
2022/04/23 00:18:51;;;;;;;0.20;0.20;;;11.20;99.90;;;;;;5096541;28;20052;-80
2022/04/23 00:21:20;;;;;;;0.93;0.32;;;11.20;99.90;;;;;;5113501;28;20048;-80
2022/04/23 00:23:47;;;;;;;0.00;0.00;;;11.20;99.90;;;;;;5113417;28;20088;-80
2022/04/23 00:26:14;;;;;;;0.00;0.00;;;11.20;99.90;;;;;;5096670;28;20043;-80
2022/04/23 00:28:39;;;;;;;0.30;0.10;;;11.20;99.90;;;;;;5113354;28;20534;-80
2022/04/23 00:31:05;;;;;;;0.10;0.10;;;11.10;99.90;;;;;;5113888;28;20081;-80
2022/04/23 00:33:34;;;;;;;1.08;0.30;;;11.10;99.90;;;;;;5097204;28;20150;-80
2022/04/23 00:35:59;;;;;;;0.20;0.20;;;11.10;99.90;;;;;;5114119;28;20047;-80
2022/04/23 00:38:25;;;;;;;0.73;0.47;;;11.10;99.90;;;;;;5114438;28;20111;-80
2022/04/23 00:40:51;;;;;;;0.05;0.05;;;11.00;99.90;;;;;;5095956;28;20134;-80
2022/04/23 00:43:27;;;;;;;0.38;0.10;;;11.00;99.90;;;;;;5097209;28;20061;-80
2022/04/23 00:45:53;;;;;;;1.27;0.28;;;11.00;99.90;;;;;;5096857;28;20433;-80
2022/04/23 00:48:19;;;;;;;0.00;0.00;;;11.00;99.90;;;;;;5114039;28;20098;-80
2022/04/23 00:50:45;;;;;;;0.30;0.30;;;11.00;99.90;;;;;;5113474;28;20138;-80
2022/04/23 00:53:11;;;;;;;0.93;0.47;;;10.90;99.90;;;;;;5113944;28;20036;-80
2022/04/23 00:55:37;;;;;;;0.20;0.10;;;10.90;99.90;;;;;;5113802;28;20104;-80
2022/04/23 00:58:04;;;;;;;1.02;0.10;;;10.90;99.90;;;;;;5096856;28;20059;-80
2022/04/23 01:00:29;;;;;;;0.20;0.20;;;10.90;99.90;;;;;;5113683;28;20051;-80
2022/04/23 01:02:55;;;;;;;0.90;0.65;;;10.80;99.90;;;;;;5113763;28;20130;-80
2022/04/23 01:05:26;;;;;;;0.73;0.40;;;10.80;99.90;;;;;;5113586;28;20044;-80
2022/04/23 01:07:52;;;;;;;1.02;0.98;;;10.80;99.90;;;;;;5113919;28;20052;-80
2022/04/23 01:10:19;;;;;;;0.10;0.10;;;10.80;99.90;;;;;;5096544;28;20130;-80
2022/04/23 01:12:45;;;;;;;1.45;0.30;;;10.80;99.90;;;;;;5113253;28;20039;-80
2022/04/23 01:15:13;;;;;;;0.10;0.10;;;10.70;99.90;;;;;;5096662;28;20054;-80
2022/04/23 01:17:40;;;;;;;0.47;0.32;;;10.80;99.90;;;;;;5113426;28;20135;-80
2022/04/23 01:20:08;;;;;;;1.55;0.25;;;10.60;99.90;;;;;;5113468;28;20051;-80
2022/04/23 01:22:36;;;;;;;1.20;0.73;;;10.70;99.90;;;;;;5096482;28;20039;-80
2022/04/23 01:25:07;;;;;;;0.00;0.00;;;10.80;99.90;;;;;;5096591;28;20058;-80
2022/04/23 01:27:34;;;;;;;0.17;0.17;;;10.70;99.90;;;;;;5113355;28;20133;-80
2022/04/23 01:30:04;;;;;;;1.55;0.65;;;10.70;99.90;;;;;;5113152;28;20088;-80
2022/04/23 01:32:30;;;;;;;0.17;0.08;;;10.70;99.90;;;;;;5112797;27;20087;-80
2022/04/23 01:34:56;;;;;;;0.95;0.88;;;10.70;99.90;;;;;;5113386;28;20083;-80
2022/04/23 01:37:22;;;;;;;0.20;0.20;;;10.60;99.90;;;;;;5113239;28;20051;-80
2022/04/23 01:39:48;;;;;;;8.30;0.47;;;10.60;99.90;;;;;;5096372;28;20531;-80
2022/04/23 01:42:17;;;;;;;0.00;0.00;;;10.60;99.90;;;;;;5113129;28;20043;-80
2022/04/23 01:44:45;;;;;;;0.10;0.05;;;10.50;99.90;;;;;;5113076;28;20063;-80
2022/04/23 01:47:11;;;;;;;0.10;0.10;;;10.60;99.90;;;;;;5096174;28;20043;-80
2022/04/23 01:49:37;;;;;;;2.47;0.68;;;10.50;99.90;;;;;;5113548;28;20035;-80
2022/04/23 01:52:03;;;;;;;0.40;0.20;;;10.50;99.90;;;;;;5114416;28;20520;-80
2022/04/23 01:54:28;;;;;;;0.10;0.10;;;10.50;99.90;;;;;;5102988;28;20129;-80
2022/04/23 01:56:57;;;;;;;0.10;0.00;;;10.50;99.90;;;;;;5120049;28;20052;-81
2022/04/23 01:59:23;;;;;;;0.47;0.47;;;10.50;99.90;;;;;;5119767;28;20050;-80
2022/04/23 02:01:49;;;;;;;0.63;0.60;;;10.50;99.90;;;;;;5102926;28;20060;-81
2022/04/23 02:04:15;;;;;;;0.32;0.20;;;10.40;99.90;;;;;;5102937;28;20056;-81
2022/04/23 02:06:41;;;;;;;1.38;0.40;;;10.40;99.90;;;;;;5119747;28;20096;-80
2022/04/23 02:09:06;;;;;;;0.35;0.25;;;10.40;99.90;;;;;;5119736;28;20055;-81
2022/04/23 02:11:32;;;;;;;0.60;0.17;;;10.40;99.90;;;;;;5119508;28;20043;-81
2022/04/23 02:13:58;;;;;;;0.10;0.10;;;10.40;99.90;;;;;;5119700;28;20035;-80
2022/04/23 02:16:26;;;;;;;0.85;0.55;;;10.30;99.90;;;;;;5120383;28;20058;-80
2022/04/23 02:18:51;;;;;;;0.57;0.00;;;10.40;99.90;;;;;;5103242;28;20091;-80
2022/04/23 02:21:17;;;;;;;0.80;0.25;;;10.40;99.90;;;;;;5102785;28;20086;-80
2022/04/23 02:23:44;;;;;;;0.17;0.10;;;10.30;99.90;;;;;;5119720;28;20051;-80
2022/04/23 02:26:10;;;;;;;0.10;0.10;;;10.40;99.90;;;;;;5119668;28;20403;-80
2022/04/23 02:28:38;;;;;;;0.20;0.10;;;10.30;99.90;;;;;;5102614;28;20090;-80
2022/04/23 02:31:05;;;;;;;7.13;1.45;;;10.40;99.90;;;;;;5119476;28;20047;-80
2022/04/23 02:33:31;;;;;;;0.25;0.00;;;10.30;99.90;;;;;;5102457;28;20055;-80
2022/04/23 02:35:57;;;;;;;0.15;0.10;;;10.30;99.90;;;;;;5119173;28;20475;-81
2022/04/23 02:38:23;;;;;;;0.75;0.40;;;10.30;99.90;;;;;;5119221;28;20040;-80
2022/04/23 02:40:48;;;;;;;0.20;0.10;;;10.20;99.90;;;;;;5119049;28;20051;-80
2022/04/23 02:43:14;;;;;;;0.13;0.00;;;10.20;99.90;;;;;;5119374;28;20044;-80
2022/04/23 02:45:41;;;;;;;0.43;0.10;;;10.20;99.90;;;;;;5102365;28;20048;-80
2022/04/23 02:48:08;;;;;;;0.10;0.00;;;10.20;99.90;;;;;;5102394;28;20100;-80
2022/04/23 02:50:37;;;;;;;0.10;0.10;;;10.10;99.90;;;;;;5119302;28;20453;-80
2022/04/23 02:53:07;;;;;;;0.15;0.10;;;10.10;99.90;;;;;;5119460;28;20150;-81
2022/04/23 02:55:33;;;;;;;0.00;0.00;;;10.10;99.90;;;;;;5102338;28;20108;-80
2022/04/23 02:58:05;;;;;;;1.63;0.70;;;10.10;99.90;;;;;;5119299;28;20044;-81
2022/04/23 03:00:31;;;;;;;0.50;0.47;;;10.10;99.90;;;;;;5119234;28;20051;-80
2022/04/23 03:02:57;;;;;;;1.25;0.52;;;10.00;99.90;;;;;;5119152;28;20051;-80
2022/04/23 03:05:23;;;;;;;2.75;0.22;;;10.00;99.90;;;;;;5098212;28;20051;-81
2022/04/23 03:07:50;;;;;;;5.07;1.02;;;10.00;99.90;;;;;;5115897;28;20047;-81
2022/04/23 03:10:18;;;;;;;0.80;0.63;;;9.90;99.90;;;;;;5115651;28;20051;-81
2022/04/23 03:12:44;;;;;;;0.13;0.00;;;9.90;99.90;;;;;;5099223;28;20066;-81
2022/04/23 03:15:18;;;;;;;0.20;0.20;;;9.90;99.90;;;;;;5116273;28;20047;-81
2022/04/23 03:17:44;;;;;;;0.22;0.10;;;9.80;99.90;;;;;;5116109;28;20093;-80
2022/04/23 03:20:12;;;;;;;0.08;0.00;;;9.80;99.90;;;;;;5115803;28;20055;-80
2022/04/23 03:22:39;;;;;;;0.25;0.25;;;9.80;99.90;;;;;;5098630;28;20491;-81
2022/04/23 03:25:09;;;;;;;3.30;0.57;;;9.80;99.90;;;;;;5115851;28;20054;-80
2022/04/23 03:27:35;;;;;;;0.35;0.25;;;9.70;99.90;;;;;;5116247;28;20126;-80
2022/04/23 03:30:01;;;;;;;0.65;0.30;;;9.70;99.90;;;;;;5098433;28;20069;-80
2022/04/23 03:32:27;;;;;;;0.38;0.28;;;9.70;99.90;;;;;;5115553;28;20090;-81
2022/04/23 03:34:54;;;;;;;0.10;0.10;;;9.70;99.90;;;;;;5115139;28;20487;-80
2022/04/23 03:37:20;;;;;;;0.75;0.50;;;9.60;99.90;;;;;;5115317;28;20052;-81
2022/04/23 03:39:46;;;;;;;0.03;0.00;;;9.50;99.90;;;;;;5116042;28;20053;-80
2022/04/23 03:42:12;;;;;;;0.25;0.08;;;9.40;99.90;;;;;;5098259;28;20060;-80
2022/04/23 03:44:37;;;;;;;0.10;0.03;;;9.50;99.90;;;;;;5098213;28;20043;-81
2022/04/23 03:47:04;;;;;;;1.95;0.47;;;9.50;99.90;;;;;;5115266;28;20053;-81
2022/04/23 03:49:30;;;;;;;0.10;0.10;;;9.50;99.90;;;;;;5098136;28;20047;-80
2022/04/23 03:51:57;;;;;;;0.13;0.10;;;9.50;99.90;;;;;;5098001;28;20056;-81
2022/04/23 03:54:23;;;;;;;0.35;0.35;;;9.50;99.90;;;;;;5098278;28;20046;-81
2022/04/23 03:56:49;;;;;;;0.10;0.10;;;9.40;99.90;;;;;;5098169;28;20059;-81
2022/04/23 03:59:20;;;;;;;0.75;0.40;;;9.40;99.90;;;;;;5098339;28;20039;-80
2022/04/23 04:01:47;;;;;;;0.10;0.10;;;9.40;99.90;;;;;;5097885;28;20130;-81
2022/04/23 04:04:14;;;;;;;0.43;0.13;;;9.40;99.90;;;;;;5114539;28;20044;-81
2022/04/23 04:06:39;;;;;;;0.00;0.00;;;9.30;99.90;;;;;;5114288;28;20108;-81
2022/04/23 04:09:05;;;;;;;0.00;0.00;;;9.40;99.90;;;;;;5114813;28;20043;-81
2022/04/23 04:12:01;;;;;;;0.00;0.00;;;9.30;99.90;;;;;;5097885;28;20046;-80
2022/04/23 04:14:17;;;;;;;0.82;0.55;;;9.30;99.90;;;;;;5114484;28;20192;-81
2022/04/23 04:16:43;;;;;;;0.25;0.25;;;9.30;99.90;;;;;;5113171;28;20046;-81
2022/04/23 04:19:09;;;;;;;1.65;0.60;;;9.40;99.90;;;;;;5097030;28;20051;-81
2022/04/23 04:21:34;;;;;;;1.65;0.28;;;9.30;99.90;;;;;;5114425;28;20040;-81
2022/04/23 04:24:00;;;;;;;0.13;0.10;;;9.30;99.90;;;;;;5114583;28;20497;-81
2022/04/23 04:26:26;;;;;;;0.00;0.00;;;9.40;99.90;;;;;;5097735;28;20051;-81
2022/04/23 04:28:51;;;;;;;0.15;0.15;;;9.30;99.90;;;;;;5114353;28;20039;-81
2022/04/23 04:34:01;;;;;;;0.10;0.10;;;9.30;99.90;;;;;;5114535;28;20058;-81
2022/04/23 04:36:27;;;;;;;0.50;0.13;;;9.40;99.90;;;;;;5114176;28;20475;-81
2022/04/23 04:38:52;;;;;;;1.30;0.40;;;9.30;99.90;;;;;;5097280;28;20050;-81
2022/04/23 04:41:18;;;;;;;6.75;0.43;;;9.30;99.90;;;;;;5113954;28;20488;-81
2022/04/23 04:43:44;;;;;;;0.63;0.10;;;9.30;99.90;;;;;;5114077;28;20471;-80
2022/04/23 04:46:09;;;;;;;2.10;0.28;;;9.30;99.90;;;;;;5097010;28;20509;-80
2022/04/23 04:48:35;;;;;;;0.20;0.20;;;9.40;99.90;;;;;;5113713;28;20063;-81
2022/04/23 04:51:00;;;;;;;0.00;0.00;;;9.30;99.90;;;;;;5113396;28;20064;-81
2022/04/23 04:53:26;;;;;;;2.38;0.52;;;9.30;99.90;;;;;;5113962;28;20055;-81
2022/04/23 04:55:52;;;;;;;0.30;0.30;;;9.40;99.90;;;;;;5113955;28;20047;-81
2022/04/23 04:58:17;;;;;;;0.03;0.03;;;9.40;99.90;;;;;;5113997;28;20126;-81
2022/04/23 05:00:43;;;;;;;0.10;0.08;;;9.40;99.90;;;;;;5113729;28;20522;-81
2022/04/23 05:03:09;;;;;;;1.10;0.40;;;9.50;99.90;;;;;;5113505;28;20043;-81
2022/04/23 05:05:34;;;;;;;0.20;0.20;;;9.50;99.90;;;;;;5113315;28;20407;-81
2022/04/23 05:08:00;;;;;;;0.13;0.10;;;9.50;99.90;;;;;;5096492;28;20478;-81
2022/04/23 05:10:25;;;;;;;0.00;0.00;;;9.60;99.90;;;;;;5113545;28;20054;-81
2022/04/23 05:12:51;;;;;;;0.00;0.00;;;9.60;99.90;;;;;;5096159;28;20050;-81
2022/04/23 05:15:17;;;;;;;0.00;0.00;;;9.70;99.90;;;;;;5113228;28;20088;-81
2022/04/23 05:17:42;;;;;;;0.10;0.10;;;9.70;99.90;;;;;;5113690;28;20100;-81
2022/04/23 05:20:09;;;;;;;0.15;0.15;;;9.80;99.90;;;;;;5113426;28;20051;-81
2022/04/23 05:22:34;;;;;;;0.08;0.08;;;9.80;99.90;;;;;;5096283;28;20142;-81
2022/04/23 05:25:00;;;;;;;0.10;0.05;;;9.80;99.90;;;;;;5113444;28;20071;-81
2022/04/23 05:27:26;;;;;;;0.03;0.03;;;9.80;99.90;;;;;;5095411;28;20483;-81
2022/04/23 05:29:52;;;;;;;0.30;0.30;;;9.90;99.90;;;;;;5113189;28;20395;-81
2022/04/23 05:32:17;;;;;;;0.38;0.30;;;9.90;99.90;;;;;;5096402;28;20050;-81
2022/04/23 05:34:43;;;;;;;0.30;0.30;;;10.00;99.90;;;;;;5113055;28;20039;-81
2022/04/23 05:37:09;;;;;;;0.00;0.00;;;9.90;99.90;;;;;;5096159;28;20051;-81
2022/04/23 05:39:35;;;;;;;0.15;0.15;;;10.00;99.90;;;;;;5096278;28;20046;-82
2022/04/23 05:42:00;;;;;;;0.00;0.00;;;10.00;99.90;;;;;;5096000;28;20048;-81
2022/04/23 05:44:26;;;;;;;0.00;0.00;;;10.10;99.90;;;;;;5113069;28;20490;-81
2022/04/23 05:46:52;;;;;;;0.43;0.43;;;10.10;99.90;;;;;;5113010;28;20483;-81
2022/04/23 05:49:20;;;;;;;0.82;0.40;;;10.10;99.90;;;;;;5096448;28;20055;-81
2022/04/23 05:51:46;;;;;;;0.00;0.00;;;10.10;99.90;;;;;;5112433;28;20117;-81
2022/04/23 05:54:11;;;;;;;0.10;0.10;;;10.10;99.90;;;;;;5096066;28;20048;-81
2022/04/23 05:56:37;;;;;;;0.60;0.60;;;10.10;99.90;;;;;;5096136;28;20051;-81
2022/04/23 05:59:03;;;;;;;0.20;0.20;;;10.20;99.90;;;;;;5112626;28;20048;-81
2022/04/23 06:01:28;;;;;;;0.10;0.10;;;10.30;99.90;;;;;;5113113;28;20048;-81
2022/04/23 06:03:54;;;;;;;0.25;0.25;;;10.30;99.90;;;;;;5113049;28;20040;-81
2022/04/23 06:06:20;;;;;;;0.63;0.10;;;10.30;99.90;;;;;;5113357;28;20043;-81
2022/04/23 06:08:46;;;;;;;0.55;0.20;;;10.40;99.90;;;;;;5112499;28;20051;-81
2022/04/23 06:11:12;;;;;;;0.00;0.00;;;10.50;99.90;;;;;;5112226;28;20506;-81
2022/04/23 06:13:38;;;;;;;0.55;0.40;;;10.70;99.90;;;;;;5095759;28;20051;-81
2022/04/23 06:16:04;;;;;;;0.80;0.52;;;10.80;99.90;;;;;;5113041;28;20047;-81
2022/04/23 06:18:29;;;;;;;0.35;0.15;;;10.80;99.90;;;;;;5112359;28;20402;-81
2022/04/23 06:20:55;;;;;;;0.00;0.00;;;10.70;99.90;;;;;;5095833;28;20091;-81
2022/04/23 06:23:21;;;;;;;0.20;0.20;;;10.80;99.90;;;;;;5095999;28;20047;-81
2022/04/23 06:25:46;;;;;;;0.20;0.17;;;10.70;99.90;;;;;;5096019;28;20437;-81
2022/04/23 06:28:12;;;;;;;0.35;0.10;;;10.70;99.90;;;;;;5095798;28;20073;-81
2022/04/23 06:30:38;;;;;;;0.47;0.10;;;11.00;99.90;;;;;;5112682;28;20083;-81
2022/04/23 06:33:04;;;;;;;0.00;0.00;;;11.10;99.90;;;;;;5112395;28;20582;-81
2022/04/23 06:35:30;;;;;;;0.10;0.10;;;11.20;99.90;;;;;;5112689;28;20051;-81
2022/04/23 06:37:57;;;;;;;0.38;0.10;;;11.20;99.90;;;;;;5095715;28;20044;-81
2022/04/23 06:40:23;;;;;;;0.20;0.15;;;11.30;99.90;;;;;;5115679;28;20054;-81
2022/04/23 06:42:49;;;;;;;0.17;0.15;;;11.50;99.90;;;;;;5116455;28;20126;-80
2022/04/23 06:45:14;;;;;;;0.80;0.22;;;11.60;99.90;;;;;;5099693;28;20059;-81
2022/04/23 06:47:40;;;;;;;0.68;0.63;;;11.80;99.90;;;;;;5116613;28;20051;-81
2022/04/23 06:50:07;;;;;;;0.25;0.25;;;12.20;99.90;;;;;;5099252;28;20395;-81
2022/04/23 06:52:36;;;;;;;0.05;0.05;;;12.90;99.90;;;;;;5115828;28;20052;-80
2022/04/23 06:55:03;;;;;;;0.10;0.10;;;13.70;99.00;;;;;;5097455;28;20048;-80
2022/04/23 06:57:29;;;;;;;2.15;0.47;;;14.40;97.20;;;;;;5098932;28;20055;-81
2022/04/23 06:59:54;;;;;;;1.40;0.10;;;14.90;95.40;;;;;;5099710;28;20189;-81
2022/04/23 07:02:21;;;;;;;0.10;0.10;;;15.40;94.10;;;;;;5099141;28;20059;-80
2022/04/23 07:04:47;;;;;;;0.45;0.20;;;15.50;93.20;;;;;;5116096;28;20051;-81
2022/04/23 07:07:13;;;;;;;1.85;0.38;;;15.30;91.80;;;;;;5116206;28;20051;-80
2022/04/23 07:09:38;;;;;;;0.00;0.00;;;15.20;91.10;;;;;;5098942;28;20089;-81
2022/04/23 07:12:05;;;;;;;0.20;0.20;;;15.10;90.80;;;;;;5098758;28;20052;-81
2022/04/23 07:14:32;;;;;;;0.40;0.20;;;15.30;91.20;;;;;;5116497;28;20440;-81
2022/04/23 07:16:58;;;;;;;0.22;0.22;;;15.20;90.60;;;;;;5115844;28;20082;-80
2022/04/23 07:19:24;;;;;;;0.20;0.10;;;15.10;90.50;;;;;;5115983;28;20075;-80
2022/04/23 07:21:49;;;;;;;0.10;0.10;;;14.90;90.80;;;;;;5115737;28;20521;-80
2022/04/23 07:24:16;;;;;;;0.28;0.28;;;14.90;90.90;;;;;;5115642;28;20126;-80
2022/04/23 07:26:42;;;;;;;0.28;0.17;;;14.90;91.50;;;;;;5116140;28;20463;-80
2022/04/23 07:29:10;;;;;;;0.10;0.10;;;15.00;91.00;;;;;;5115823;28;20044;-81
2022/04/23 07:31:37;;;;;;;0.93;0.45;;;15.30;90.80;;;;;;5115188;28;20118;-81
2022/04/23 07:39:33;;;;;;;0.90;0.57;;;15.10;89.50;;;;;;5116130;28;20104;-81
2022/04/23 07:41:59;;;;;;;0.20;0.10;;;15.10;89.40;;;;;;5098413;28;20059;-81
2022/04/23 07:44:25;;;;;;;0.50;0.40;;;15.30;89.10;;;;;;5098260;28;20040;-81
2022/04/23 07:46:51;;;;;;;0.00;0.00;;;15.20;88.70;;;;;;5098415;28;20130;-81
2022/04/23 07:49:17;;;;;;;0.10;0.10;;;15.20;86.50;;;;;;5097456;28;20212;-81
2022/04/23 07:51:43;;;;;;;0.30;0.30;;;15.20;86.40;;;;;;5114479;28;20052;-81
2022/04/23 07:54:09;;;;;;;2.67;1.20;;;15.20;85.90;;;;;;5098079;28;20091;-80
2022/04/23 07:56:35;;;;;;;0.10;0.10;;;15.30;86.00;;;;;;5097730;28;20136;-81
2022/04/23 07:59:02;;;;;;;0.10;0.10;;;15.20;85.90;;;;;;5098082;28;20100;-80
2022/04/23 08:01:28;;;;;;;0.13;0.10;;;15.40;85.60;;;;;;5114868;28;20104;-81
2022/04/23 08:03:54;;;;;;;0.45;0.45;;;15.30;84.70;;;;;;5114789;28;20051;-81
2022/04/23 08:06:19;;;;;;;0.98;0.40;;;15.30;83.80;;;;;;5097822;28;20063;-81
2022/04/23 08:08:45;;;;;;;0.55;0.30;;;15.30;83.20;;;;;;5114879;28;20054;-81
2022/04/23 08:11:11;;;;;;;0.43;0.32;;;15.50;84.40;;;;;;5115097;28;20039;-81
2022/04/23 08:13:37;;;;;;;2.65;0.50;;;15.50;83.00;;;;;;5114835;28;20106;-81
2022/04/23 08:16:03;;;;;;;0.30;0.30;;;15.70;84.10;;;;;;5114870;28;20084;-81
2022/04/23 08:18:29;;;;;;;0.15;0.15;;;15.70;81.70;;;;;;5097657;28;20101;-81
2022/04/23 08:20:55;;;;;;;1.92;0.82;;;15.80;81.50;;;;;;5114395;28;20195;-81
2022/04/23 08:23:21;;;;;;;6.15;1.23;;;15.90;81.50;;;;;;5114662;28;20043;-81
2022/04/23 08:25:47;;;;;;;0.10;0.10;;;15.80;80.40;;;;;;5114677;28;20094;-81
2022/04/23 08:30:59;;;;;;;0.82;0.20;;;15.90;79.40;;;;;;5114158;28;20097;-81
2022/04/23 08:33:57;;;;;;;0.00;0.00;;;15.90;80.80;;;;;;5097632;28;20413;-81
2022/04/23 08:36:11;;;;;;;2.55;0.30;;;16.00;80.00;;;;;;5114720;28;20399;-82
2022/04/23 08:38:36;;;;;;;1.77;0.32;;;15.90;78.50;;;;;;5114156;28;20036;-82
2022/04/23 08:41:04;;;;;;;1.50;0.70;;;15.90;78.60;;;;;;5112570;28;20560;-80
2022/04/23 08:43:32;;;;;;;0.80;0.32;;;15.80;78.10;;;;;;5112005;28;20502;-81
2022/04/23 08:46:02;;;;;;;0.10;0.10;;;15.90;78.60;;;;;;5114127;28;20574;-81
2022/04/23 08:48:38;;;;;;;0.32;0.32;;;16.00;78.80;;;;;;5097132;28;20043;-81
2022/04/23 08:51:10;;;;;;;0.20;0.10;;;16.10;78.60;;;;;;5097008;28;20058;-81
2022/04/23 08:53:40;;;;;;;0.80;0.80;;;16.00;76.40;;;;;;5097305;28;20395;-81
2022/04/23 08:56:08;;;;;;;0.98;0.52;;;16.00;77.40;;;;;;5113362;28;20051;-82
2022/04/23 08:58:33;;;;;;;0.20;0.20;;;16.10;77.30;;;;;;5113447;28;20044;-82
2022/04/23 09:00:59;;;;;;;0.00;0.00;;;16.10;77.20;;;;;;5113600;28;20062;-83
2022/04/23 09:03:25;;;;;;;1.38;0.10;;;16.20;77.20;;;;;;5113422;28;20063;-82
2022/04/23 09:05:54;;;;;;;0.10;0.05;;;16.20;76.70;;;;;;5096740;28;20047;-82
2022/04/23 09:08:19;;;;;;;0.20;0.20;;;16.50;79.00;;;;;;5113694;28;20473;-81
2022/04/23 09:10:46;;;;;;;0.15;0.10;;;16.60;76.10;;;;;;5113460;28;20047;-81
2022/04/23 09:13:25;;;;;;;0.73;0.50;;;16.70;76.00;;;;;;5113606;28;20047;-81
2022/04/23 09:24:47;;;;;;;0.30;0.10;;;17.20;75.10;;;;;;5113509;28;20104;-81
2022/04/23 09:27:14;;;;;;;0.03;0.03;;;17.40;75.00;;;;;;5096445;28;20135;-82
2022/04/23 09:29:40;;;;;;;0.10;0.10;;;17.30;72.20;;;;;;5114252;28;20134;-81
2022/04/23 09:32:17;;;;;;;0.25;0.20;;;17.20;73.20;;;;;;5113474;28;20100;-81
2022/04/23 09:34:42;;;;;;;0.08;0.08;;;17.20;72.20;;;;;;5113437;28;20047;-82
2022/04/23 09:37:11;;;;;;;1.35;0.90;;;17.20;72.40;;;;;;5113367;28;20039;-82
2022/04/23 09:39:38;;;;;;;0.00;0.00;;;17.20;71.50;;;;;;5113067;28;20563;-82
2022/04/23 09:42:17;;;;;;;0.40;0.32;;;17.10;72.70;;;;;;5113282;28;20051;-82
2022/04/23 09:44:44;;;;;;;0.80;0.35;;;17.30;71.40;;;;;;5096772;28;20104;-82
2022/04/23 09:47:10;;;;;;;0.30;0.10;;;17.40;72.50;;;;;;5096312;28;20047;-82
2022/04/23 09:49:36;;;;;;;2.08;0.65;;;17.30;71.20;;;;;;5113096;28;20043;-82
2022/04/23 09:52:08;;;;;;;0.00;0.00;;;17.30;70.40;;;;;;5096054;28;20059;-82
2022/04/23 09:54:36;;;;;;;1.55;0.25;;;17.50;72.10;;;;;;5113019;28;20058;-82
2022/04/23 09:57:02;;;;;;;0.30;0.20;;;17.60;70.50;;;;;;5113031;28;20044;-82
2022/04/23 09:59:28;;;;;;;1.65;0.47;;;17.80;71.30;;;;;;5095587;28;20168;-82
2022/04/23 10:01:55;;;;;;;0.00;0.00;;;18.10;73.50;;;;;;5113017;28;20126;-81
2022/04/23 10:04:25;;;;;;;0.45;0.20;;;18.30;71.30;;;;;;5096129;28;20051;-81
2022/04/23 10:06:52;;;;;;;0.70;0.57;;;18.10;67.80;;;;;;5112997;28;20071;-81
2022/04/23 10:09:21;;;;;;;1.67;0.75;;;18.20;69.40;;;;;;5095801;28;20059;-81
2022/04/23 10:11:49;;;;;;;0.10;0.10;;;18.00;67.30;;;;;;5095790;28;20075;-81
2022/04/23 10:14:20;;;;;;;0.10;0.00;;;18.10;69.20;;;;;;5115903;28;20047;-81
2022/04/23 10:16:48;;;;;;;0.00;0.00;;;18.10;68.00;;;;;;5100223;28;20055;-81
2022/04/23 10:19:15;;;;;;;0.13;0.13;;;18.30;70.10;;;;;;5099994;28;20087;-81
2022/04/23 10:22:01;;;;;;;0.00;0.00;;;18.30;68.50;;;;;;5117291;28;20441;-81
2022/04/23 10:24:55;;;;;;;0.43;0.10;;;18.40;67.40;;;;;;5100384;28;20044;-81
2022/04/23 10:27:25;;;;;;;0.10;0.10;;;18.50;67.70;;;;;;5100020;28;20100;-81
2022/04/23 10:29:55;;;;;;;0.00;0.00;;;18.70;68.60;;;;;;5116732;28;20058;-80
2022/04/23 10:32:21;;;;;;;0.13;0.13;;;18.70;66.90;;;;;;5116925;28;20054;-80
2022/04/23 10:34:47;;;;;;;0.73;0.30;;;18.70;66.00;;;;;;5100051;28;20040;-80
2022/04/23 10:37:14;;;;;;;0.00;0.00;;;18.80;65.60;;;;;;5116690;28;20043;-80
2022/04/23 10:39:40;;;;;;;0.10;0.10;;;18.80;65.00;;;;;;5116256;28;20048;-81
2022/04/23 10:42:06;;;;;;;0.10;0.10;;;19.00;66.40;;;;;;5099755;28;20051;-81
2022/04/23 10:44:32;;;;;;;0.13;0.13;;;18.90;64.70;;;;;;5099434;28;20096;-81
2022/04/23 10:46:58;;;;;;;1.13;0.38;;;19.10;66.20;;;;;;5116388;28;20048;-81
2022/04/23 10:49:25;;;;;;;0.20;0.10;;;19.20;64.30;;;;;;5116295;28;20052;-81
2022/04/23 10:51:56;;;;;;;0.00;0.00;;;19.30;63.80;;;;;;5099054;28;20108;-81
2022/04/23 10:54:45;;;;;;;0.52;0.52;;;19.30;64.50;;;;;;5099005;28;20051;-81
2022/04/23 10:57:15;;;;;;;5.15;0.75;;;19.40;64.20;;;;;;5099959;28;20048;-80
2022/04/23 10:59:48;;;;;;;0.00;0.00;;;19.10;61.20;;;;;;5099377;28;20046;-81
2022/04/23 11:02:19;;;;;;;0.10;0.00;;;19.10;63.70;;;;;;5116058;28;20497;-81
2022/04/23 11:13:57;;;;;;;0.10;0.10;;;19.50;63.60;;;;;;5058149;28;20131;-81
2022/04/23 11:16:30;;;;;;;0.60;0.03;;;19.60;62.30;;;;;;5057915;28;20102;-81
2022/04/23 11:19:02;;;;;;;0.20;0.10;;;19.40;62.10;;;;;;5057663;28;20079;-81
2022/04/23 11:21:35;;;;;;;0.00;0.00;;;19.60;63.10;;;;;;5057454;28;20057;-81
2022/04/23 11:24:02;;;;;;;0.47;0.28;;;19.60;60.40;;;;;;5057435;28;20095;-81
2022/04/23 11:26:47;;;;;;;0.00;0.00;;;19.60;58.50;;;;;;5040644;28;20056;-82
2022/04/23 11:29:13;;;;;;;;;;;19.90;60.80;;;;;;5057594;28;20136;-82
2022/04/23 11:31:40;;;;;;;0.10;0.03;;;20.00;61.50;;;;;;5057269;28;19978;-82
2022/04/23 11:34:06;;;;;;;0.85;0.30;;;20.00;59.30;;;;;;5040285;28;20068;-82
2022/04/23 11:36:33;;;;;;;0.10;0.10;;;20.00;58.20;;;;;;5040127;28;20044;-82
2022/04/23 11:39:03;;;;;;;0.65;0.52;;;19.70;57.90;;;;;;5057238;28;20045;-82
2022/04/23 11:41:33;;;;;;;0.40;0.40;;;19.60;58.00;;;;;;5057046;28;20507;-82
2022/04/23 11:44:14;;;;;;;0.20;0.10;;;19.50;59.20;;;;;;5056897;28;20045;-82
2022/04/23 11:46:48;;;;;;;0.10;0.10;;;19.80;61.00;;;;;;5060125;28;20056;-82
2022/04/23 11:49:29;;;;;;;0.25;0.25;;;19.80;59.10;;;;;;5097947;28;20066;-82
2022/04/23 11:52:15;;;;;;;0.00;0.00;;;19.80;58.70;;;;;;5114679;28;20060;-82
2022/04/23 11:54:41;;;;;;;0.10;0.10;;;19.40;57.30;;;;;;5098321;28;20055;-82
2022/04/23 11:57:10;;;;;;;0.00;0.00;;;19.60;57.90;;;;;;5097987;28;20130;-83
2022/04/23 11:59:37;;;;;;;0.63;0.20;;;19.60;57.30;;;;;;5114768;28;20104;-82
2022/04/23 12:02:23;;;;;;;0.00;0.00;;;19.30;55.90;;;;;;5115044;28;20043;-83
2022/04/23 12:05:00;;;;;;;0.10;0.10;;;19.40;56.70;;;;;;5098527;28;20055;-82
2022/04/23 12:07:27;;;;;;;1.10;0.10;;;19.60;56.90;;;;;;5115063;28;20050;-83
2022/04/23 12:09:58;;;;;;;1.08;0.40;;;19.60;56.30;;;;;;5097510;28;20414;-83
2022/04/23 12:12:27;;;;;;;0.20;0.20;;;19.60;55.40;;;;;;5097979;28;20051;-83
2022/04/23 12:14:58;;;;;;;0.28;0.05;;;19.60;56.00;;;;;;5114448;28;20403;-83
2022/04/23 12:17:29;;;;;;;0.10;0.10;;;19.90;57.50;;;;;;5114907;28;20055;-83
2022/04/23 12:19:56;;;;;;;0.90;0.00;;;19.70;54.50;;;;;;5114939;28;20389;-83
2022/04/23 12:22:31;;;;;;;0.00;0.00;;;19.90;55.00;;;;;;5114507;28;20135;-83
2022/04/23 12:25:18;;;;;;;0.20;0.15;;;19.90;55.30;;;;;;5097515;28;20042;-83
2022/04/23 12:42:23;;;;;;;0.22;0.17;;;20.50;52.70;;;;;;5114310;28;20044;-83
2022/04/23 12:44:52;;;;;;;0.20;0.10;;;20.60;54.40;;;;;;5114143;28;20047;-83
2022/04/23 12:47:32;;;;;;;0.10;0.10;;;20.70;54.20;;;;;;5114121;28;20044;-83
2022/04/23 12:50:00;;;;;;;0.00;0.00;;;20.60;51.40;;;;;;5114254;28;20050;-83
2022/04/23 12:52:31;;;;;;;0.10;0.10;;;20.60;51.30;;;;;;5113432;28;20089;-83
2022/04/23 12:55:15;;;;;;;0.00;0.00;;;20.60;54.00;;;;;;5096890;28;20089;-83
2022/04/23 12:57:48;;;;;;;0.00;0.00;;;20.70;50.70;;;;;;5113775;28;20044;-83
2022/04/23 13:00:16;;;;;;;0.10;0.10;;;20.50;49.80;;;;;;5113531;28;20059;-83
2022/04/23 13:02:45;;;;;;;0.00;0.00;;;20.50;49.90;;;;;;5113861;28;20035;-83
2022/04/23 13:05:12;;;;;;;2.80;0.82;;;20.70;51.40;;;;;;5114088;28;20069;-82
2022/04/23 13:10:22;;;;;;;0.00;0.00;;;21.00;50.50;;;;;;5113422;28;20043;-82
2022/04/23 13:12:51;;;;;;;0.65;0.40;;;21.10;50.10;;;;;;5113728;28;20093;-83
2022/04/23 13:15:17;;;;;;;0.15;0.15;;;20.80;48.90;;;;;;5113163;28;20078;-82
2022/04/23 13:17:44;;;;;;;0.13;0.10;;;20.60;48.40;;;;;;5113333;28;20123;-83
2022/04/23 13:20:11;;;;;;;0.00;0.00;;;20.50;47.90;;;;;;5113420;28;20055;-82
2022/04/23 13:22:38;;;;;;;0.00;0.00;;;20.70;49.10;;;;;;5113579;28;20440;-83
2022/04/23 13:25:05;;;;;;;0.10;0.10;;;20.70;49.50;;;;;;5113947;28;20047;-82
2022/04/23 13:27:31;;;;;;;0.00;0.00;;;20.60;48.10;;;;;;5112767;28;20089;-82
2022/04/23 13:29:57;;;;;;;0.00;0.00;;;20.50;48.90;;;;;;5113269;28;20039;-82
2022/04/23 13:32:23;;;;;;;0.00;0.00;;;20.60;48.80;;;;;;5096243;28;20054;-82
2022/04/23 13:34:49;;;;;;;0.43;0.28;;;20.50;47.40;;;;;;5096313;28;20093;-82
2022/04/23 13:37:15;;;;;;;0.10;0.00;;;20.40;47.50;;;;;;5112720;28;20043;-82